sensor_id;sensor_type;location;lat;lon;timestamp;P1;durP1;ratioP1;P2;durP2;ratioP2
80985;SDS011;70451;51.226;6.412;2023-07-29T00:01:45;2.50;;;2.25;;
80985;SDS011;70451;51.226;6.412;2023-07-29T00:04:00;2.17;;;1.98;;
80985;SDS011;70451;51.226;6.412;2023-07-29T00:06:15;2.53;;;1.92;;
80985;SDS011;70451;51.226;6.412;2023-07-29T00:08:31;2.58;;;2.00;;
80985;SDS011;70451;51.226;6.412;2023-07-29T00:10:46;3.45;;;1.90;;
80985;SDS011;70451;51.226;6.412;2023-07-29T00:13:02;4.47;;;2.03;;
80985;SDS011;70451;51.226;6.412;2023-07-29T00:15:18;2.35;;;2.00;;
80985;SDS011;70451;51.226;6.412;2023-07-29T00:17:33;2.53;;;1.80;;
80985;SDS011;70451;51.226;6.412;2023-07-29T00:19:48;4.05;;;2.10;;
80985;SDS011;70451;51.226;6.412;2023-07-29T00:22:04;2.72;;;1.92;;
80985;SDS011;70451;51.226;6.412;2023-07-29T00:24:19;2.40;;;1.92;;
80985;SDS011;70451;51.226;6.412;2023-07-29T00:26:34;2.58;;;1.65;;
80985;SDS011;70451;51.226;6.412;2023-07-29T00:28:50;2.33;;;2.05;;
80985;SDS011;70451;51.226;6.412;2023-07-29T00:31:05;4.07;;;2.40;;
80985;SDS011;70451;51.226;6.412;2023-07-29T00:33:21;2.55;;;2.22;;
80985;SDS011;70451;51.226;6.412;2023-07-29T00:35:36;2.95;;;2.10;;
80985;SDS011;70451;51.226;6.412;2023-07-29T00:37:51;4.25;;;2.65;;
80985;SDS011;70451;51.226;6.412;2023-07-29T00:40:09;2.35;;;1.90;;
80985;SDS011;70451;51.226;6.412;2023-07-29T00:42:30;2.60;;;1.90;;
80985;SDS011;70451;51.226;6.412;2023-07-29T00:44:45;3.75;;;2.20;;
80985;SDS011;70451;51.226;6.412;2023-07-29T00:47:02;3.95;;;2.70;;
80985;SDS011;70451;51.226;6.412;2023-07-29T00:49:20;3.80;;;2.25;;
80985;SDS011;70451;51.226;6.412;2023-07-29T00:51:36;6.22;;;3.70;;
80985;SDS011;70451;51.226;6.412;2023-07-29T00:53:51;2.40;;;1.92;;
80985;SDS011;70451;51.226;6.412;2023-07-29T00:56:07;3.25;;;2.35;;
80985;SDS011;70451;51.226;6.412;2023-07-29T00:58:22;3.65;;;2.15;;
80985;SDS011;70451;51.226;6.412;2023-07-29T01:00:37;2.38;;;1.83;;
80985;SDS011;70451;51.226;6.412;2023-07-29T01:02:53;3.78;;;1.90;;
80985;SDS011;70451;51.226;6.412;2023-07-29T01:05:11;4.95;;;1.98;;
80985;SDS011;70451;51.226;6.412;2023-07-29T01:10:07;2.88;;;1.90;;
80985;SDS011;70451;51.226;6.412;2023-07-29T01:12:40;3.65;;;2.10;;
80985;SDS011;70451;51.226;6.412;2023-07-29T01:18:17;3.35;;;2.08;;
80985;SDS011;70451;51.226;6.412;2023-07-29T01:20:10;2.70;;;2.22;;
80985;SDS011;70451;51.226;6.412;2023-07-29T01:22:28;4.82;;;2.40;;
80985;SDS011;70451;51.226;6.412;2023-07-29T01:24:45;3.58;;;2.20;;
80985;SDS011;70451;51.226;6.412;2023-07-29T01:27:01;2.67;;;2.13;;
80985;SDS011;70451;51.226;6.412;2023-07-29T01:29:18;4.93;;;2.22;;
80985;SDS011;70451;51.226;6.412;2023-07-29T01:31:34;2.65;;;2.05;;
80985;SDS011;70451;51.226;6.412;2023-07-29T01:33:59;2.90;;;2.15;;
80985;SDS011;70451;51.226;6.412;2023-07-29T01:36:21;5.68;;;2.45;;
80985;SDS011;70451;51.226;6.412;2023-07-29T01:38:38;3.38;;;2.40;;
80985;SDS011;70451;51.226;6.412;2023-07-29T01:40:56;5.60;;;2.95;;
80985;SDS011;70451;51.226;6.412;2023-07-29T01:43:14;3.50;;;2.60;;
80985;SDS011;70451;51.226;6.412;2023-07-29T01:45:29;6.07;;;2.63;;
80985;SDS011;70451;51.226;6.412;2023-07-29T01:47:50;3.70;;;2.15;;
80985;SDS011;70451;51.226;6.412;2023-07-29T01:50:06;4.32;;;2.50;;
80985;SDS011;70451;51.226;6.412;2023-07-29T01:52:21;5.03;;;2.67;;
80985;SDS011;70451;51.226;6.412;2023-07-29T01:54:37;3.53;;;2.85;;
80985;SDS011;70451;51.226;6.412;2023-07-29T01:56:53;5.80;;;2.65;;
80985;SDS011;70451;51.226;6.412;2023-07-29T01:59:08;4.20;;;2.70;;
80985;SDS011;70451;51.226;6.412;2023-07-29T02:01:23;4.88;;;2.47;;
80985;SDS011;70451;51.226;6.412;2023-07-29T02:03:39;5.00;;;2.60;;
80985;SDS011;70451;51.226;6.412;2023-07-29T02:05:54;5.45;;;2.60;;
80985;SDS011;70451;51.226;6.412;2023-07-29T02:08:09;6.00;;;2.85;;
80985;SDS011;70451;51.226;6.412;2023-07-29T02:10:25;4.78;;;3.05;;
80985;SDS011;70451;51.226;6.412;2023-07-29T02:12:40;5.68;;;2.47;;
80985;SDS011;70451;51.226;6.412;2023-07-29T02:14:56;4.32;;;2.60;;
80985;SDS011;70451;51.226;6.412;2023-07-29T02:17:11;3.15;;;2.85;;
80985;SDS011;70451;51.226;6.412;2023-07-29T02:19:26;4.30;;;2.85;;
80985;SDS011;70451;51.226;6.412;2023-07-29T02:21:41;5.28;;;3.17;;
80985;SDS011;70451;51.226;6.412;2023-07-29T02:23:57;6.55;;;3.40;;
80985;SDS011;70451;51.226;6.412;2023-07-29T02:26:12;3.33;;;2.60;;
80985;SDS011;70451;51.226;6.412;2023-07-29T02:28:27;7.97;;;3.05;;
80985;SDS011;70451;51.226;6.412;2023-07-29T02:30:43;7.10;;;2.97;;
80985;SDS011;70451;51.226;6.412;2023-07-29T02:33:01;4.13;;;2.90;;
80985;SDS011;70451;51.226;6.412;2023-07-29T02:35:16;4.32;;;3.10;;
80985;SDS011;70451;51.226;6.412;2023-07-29T02:37:32;7.28;;;3.17;;
80985;SDS011;70451;51.226;6.412;2023-07-29T02:39:47;5.28;;;3.10;;
80985;SDS011;70451;51.226;6.412;2023-07-29T02:42:02;7.97;;;3.20;;
80985;SDS011;70451;51.226;6.412;2023-07-29T02:44:18;4.32;;;2.72;;
80985;SDS011;70451;51.226;6.412;2023-07-29T02:46:35;6.90;;;3.13;;
80985;SDS011;70451;51.226;6.412;2023-07-29T02:48:50;5.28;;;2.78;;
80985;SDS011;70451;51.226;6.412;2023-07-29T02:51:05;3.85;;;3.35;;
80985;SDS011;70451;51.226;6.412;2023-07-29T02:53:24;5.40;;;3.15;;
80985;SDS011;70451;51.226;6.412;2023-07-29T02:55:40;4.63;;;3.03;;
80985;SDS011;70451;51.226;6.412;2023-07-29T02:57:55;4.03;;;3.00;;
80985;SDS011;70451;51.226;6.412;2023-07-29T03:00:11;4.10;;;3.13;;
80985;SDS011;70451;51.226;6.412;2023-07-29T03:02:27;4.10;;;3.10;;
80985;SDS011;70451;51.226;6.412;2023-07-29T03:04:42;5.03;;;2.90;;
80985;SDS011;70451;51.226;6.412;2023-07-29T03:06:57;8.60;;;3.38;;
80985;SDS011;70451;51.226;6.412;2023-07-29T03:09:14;7.75;;;3.53;;
80985;SDS011;70451;51.226;6.412;2023-07-29T03:11:29;4.70;;;3.13;;
80985;SDS011;70451;51.226;6.412;2023-07-29T03:13:46;7.13;;;3.10;;
80985;SDS011;70451;51.226;6.412;2023-07-29T03:16:11;6.53;;;3.80;;
80985;SDS011;70451;51.226;6.412;2023-07-29T03:18:28;5.45;;;3.70;;
80985;SDS011;70451;51.226;6.412;2023-07-29T03:20:43;5.05;;;3.58;;
80985;SDS011;70451;51.226;6.412;2023-07-29T03:22:59;4.72;;;3.50;;
80985;SDS011;70451;51.226;6.412;2023-07-29T03:25:14;5.32;;;3.22;;
80985;SDS011;70451;51.226;6.412;2023-07-29T03:27:29;4.55;;;3.15;;
80985;SDS011;70451;51.226;6.412;2023-07-29T03:29:45;5.53;;;3.28;;
80985;SDS011;70451;51.226;6.412;2023-07-29T03:32:00;4.88;;;3.38;;
80985;SDS011;70451;51.226;6.412;2023-07-29T03:34:16;5.90;;;3.95;;
80985;SDS011;70451;51.226;6.412;2023-07-29T03:36:31;5.35;;;3.75;;
80985;SDS011;70451;51.226;6.412;2023-07-29T03:38:46;6.18;;;3.55;;
80985;SDS011;70451;51.226;6.412;2023-07-29T03:41:02;6.55;;;3.45;;
80985;SDS011;70451;51.226;6.412;2023-07-29T03:43:18;5.30;;;3.45;;
80985;SDS011;70451;51.226;6.412;2023-07-29T03:45:33;5.78;;;3.72;;
80985;SDS011;70451;51.226;6.412;2023-07-29T03:47:50;5.78;;;3.92;;
80985;SDS011;70451;51.226;6.412;2023-07-29T03:50:05;6.15;;;3.85;;
80985;SDS011;70451;51.226;6.412;2023-07-29T03:52:21;7.53;;;4.07;;
80985;SDS011;70451;51.226;6.412;2023-07-29T03:54:36;7.55;;;3.63;;
80985;SDS011;70451;51.226;6.412;2023-07-29T03:56:51;5.50;;;3.55;;
80985;SDS011;70451;51.226;6.412;2023-07-29T03:59:07;5.65;;;3.63;;
80985;SDS011;70451;51.226;6.412;2023-07-29T04:01:22;5.57;;;3.13;;
80985;SDS011;70451;51.226;6.412;2023-07-29T04:03:37;4.90;;;3.28;;
80985;SDS011;70451;51.226;6.412;2023-07-29T04:05:52;5.25;;;3.22;;
80985;SDS011;70451;51.226;6.412;2023-07-29T04:08:08;6.20;;;3.70;;
80985;SDS011;70451;51.226;6.412;2023-07-29T04:10:23;4.85;;;3.30;;
80985;SDS011;70451;51.226;6.412;2023-07-29T04:12:39;7.15;;;3.50;;
80985;SDS011;70451;51.226;6.412;2023-07-29T04:14:54;4.55;;;3.08;;
80985;SDS011;70451;51.226;6.412;2023-07-29T04:17:09;5.60;;;3.50;;
80985;SDS011;70451;51.226;6.412;2023-07-29T04:19:25;4.97;;;3.55;;
80985;SDS011;70451;51.226;6.412;2023-07-29T04:21:40;6.63;;;3.13;;
80985;SDS011;70451;51.226;6.412;2023-07-29T04:23:55;6.13;;;3.00;;
80985;SDS011;70451;51.226;6.412;2023-07-29T04:26:11;5.35;;;2.90;;
80985;SDS011;70451;51.226;6.412;2023-07-29T04:28:26;5.95;;;3.08;;
80985;SDS011;70451;51.226;6.412;2023-07-29T04:30:41;4.55;;;3.08;;
80985;SDS011;70451;51.226;6.412;2023-07-29T04:32:56;4.75;;;2.53;;
80985;SDS011;70451;51.226;6.412;2023-07-29T04:35:12;4.72;;;2.58;;
80985;SDS011;70451;51.226;6.412;2023-07-29T04:37:27;4.28;;;2.80;;
80985;SDS011;70451;51.226;6.412;2023-07-29T04:39:42;3.20;;;2.33;;
80985;SDS011;70451;51.226;6.412;2023-07-29T04:41:58;4.50;;;2.28;;
80985;SDS011;70451;51.226;6.412;2023-07-29T04:44:13;5.47;;;2.50;;
80985;SDS011;70451;51.226;6.412;2023-07-29T04:46:28;4.97;;;2.65;;
80985;SDS011;70451;51.226;6.412;2023-07-29T04:48:44;3.80;;;2.15;;
80985;SDS011;70451;51.226;6.412;2023-07-29T04:50:59;4.60;;;2.20;;
80985;SDS011;70451;51.226;6.412;2023-07-29T04:53:14;3.00;;;1.98;;
80985;SDS011;70451;51.226;6.412;2023-07-29T04:55:30;3.83;;;2.15;;
80985;SDS011;70451;51.226;6.412;2023-07-29T04:57:45;3.67;;;2.65;;
80985;SDS011;70451;51.226;6.412;2023-07-29T05:00:02;5.97;;;2.42;;
80985;SDS011;70451;51.226;6.412;2023-07-29T05:02:18;4.30;;;3.08;;
80985;SDS011;70451;51.226;6.412;2023-07-29T05:04:33;6.35;;;3.00;;
80985;SDS011;70451;51.226;6.412;2023-07-29T05:06:48;4.63;;;2.78;;
80985;SDS011;70451;51.226;6.412;2023-07-29T05:09:16;3.45;;;2.55;;
80985;SDS011;70451;51.226;6.412;2023-07-29T05:11:33;3.60;;;2.75;;
80985;SDS011;70451;51.226;6.412;2023-07-29T05:13:48;5.78;;;2.50;;
80985;SDS011;70451;51.226;6.412;2023-07-29T05:16:03;4.10;;;2.90;;
80985;SDS011;70451;51.226;6.412;2023-07-29T05:18:19;4.55;;;2.65;;
80985;SDS011;70451;51.226;6.412;2023-07-29T05:20:34;4.22;;;2.53;;
80985;SDS011;70451;51.226;6.412;2023-07-29T05:22:50;3.88;;;2.75;;
80985;SDS011;70451;51.226;6.412;2023-07-29T05:25:05;5.75;;;2.47;;
80985;SDS011;70451;51.226;6.412;2023-07-29T05:27:21;3.67;;;2.20;;
80985;SDS011;70451;51.226;6.412;2023-07-29T05:29:36;3.90;;;2.53;;
80985;SDS011;70451;51.226;6.412;2023-07-29T05:31:51;4.05;;;2.05;;
80985;SDS011;70451;51.226;6.412;2023-07-29T05:34:07;7.22;;;2.80;;
80985;SDS011;70451;51.226;6.412;2023-07-29T05:36:22;7.03;;;2.83;;
80985;SDS011;70451;51.226;6.412;2023-07-29T05:38:37;5.10;;;2.50;;
80985;SDS011;70451;51.226;6.412;2023-07-29T05:40:53;3.78;;;1.98;;
80985;SDS011;70451;51.226;6.412;2023-07-29T05:43:08;3.10;;;2.30;;
80985;SDS011;70451;51.226;6.412;2023-07-29T05:45:23;4.65;;;2.30;;
80985;SDS011;70451;51.226;6.412;2023-07-29T05:47:39;3.05;;;2.22;;
80985;SDS011;70451;51.226;6.412;2023-07-29T05:49:54;6.00;;;2.33;;
80985;SDS011;70451;51.226;6.412;2023-07-29T05:52:09;6.32;;;2.90;;
80985;SDS011;70451;51.226;6.412;2023-07-29T05:54:24;2.78;;;2.08;;
80985;SDS011;70451;51.226;6.412;2023-07-29T05:56:40;3.97;;;2.08;;
80985;SDS011;70451;51.226;6.412;2023-07-29T05:58:55;3.93;;;2.03;;
80985;SDS011;70451;51.226;6.412;2023-07-29T06:01:10;3.63;;;2.33;;
80985;SDS011;70451;51.226;6.412;2023-07-29T06:03:26;2.65;;;1.70;;
80985;SDS011;70451;51.226;6.412;2023-07-29T06:05:41;4.22;;;1.95;;
80985;SDS011;70451;51.226;6.412;2023-07-29T06:07:57;2.53;;;1.70;;
80985;SDS011;70451;51.226;6.412;2023-07-29T06:10:12;3.03;;;1.67;;
80985;SDS011;70451;51.226;6.412;2023-07-29T06:12:29;2.00;;;1.70;;
80985;SDS011;70451;51.226;6.412;2023-07-29T06:14:44;2.50;;;1.65;;
80985;SDS011;70451;51.226;6.412;2023-07-29T06:16:59;4.67;;;2.00;;
80985;SDS011;70451;51.226;6.412;2023-07-29T06:19:15;2.88;;;1.80;;
80985;SDS011;70451;51.226;6.412;2023-07-29T06:21:31;3.00;;;1.77;;
80985;SDS011;70451;51.226;6.412;2023-07-29T06:23:46;2.78;;;1.83;;
80985;SDS011;70451;51.226;6.412;2023-07-29T06:26:02;2.95;;;1.95;;
80985;SDS011;70451;51.226;6.412;2023-07-29T06:28:17;3.35;;;1.70;;
80985;SDS011;70451;51.226;6.412;2023-07-29T06:30:32;3.58;;;2.03;;
80985;SDS011;70451;51.226;6.412;2023-07-29T06:32:48;3.50;;;1.90;;
80985;SDS011;70451;51.226;6.412;2023-07-29T06:35:03;3.08;;;1.83;;
80985;SDS011;70451;51.226;6.412;2023-07-29T06:37:19;2.92;;;2.03;;
80985;SDS011;70451;51.226;6.412;2023-07-29T06:39:34;3.38;;;2.25;;
80985;SDS011;70451;51.226;6.412;2023-07-29T06:41:49;6.80;;;2.88;;
80985;SDS011;70451;51.226;6.412;2023-07-29T06:44:04;2.90;;;1.90;;
80985;SDS011;70451;51.226;6.412;2023-07-29T06:46:20;3.50;;;2.15;;
80985;SDS011;70451;51.226;6.412;2023-07-29T06:48:35;3.80;;;2.30;;
80985;SDS011;70451;51.226;6.412;2023-07-29T06:50:51;2.83;;;1.70;;
80985;SDS011;70451;51.226;6.412;2023-07-29T06:53:07;3.38;;;2.17;;
80985;SDS011;70451;51.226;6.412;2023-07-29T06:55:22;2.70;;;1.73;;
80985;SDS011;70451;51.226;6.412;2023-07-29T06:57:37;2.92;;;2.28;;
80985;SDS011;70451;51.226;6.412;2023-07-29T06:59:53;2.33;;;1.55;;
80985;SDS011;70451;51.226;6.412;2023-07-29T07:02:08;4.68;;;1.88;;
80985;SDS011;70451;51.226;6.412;2023-07-29T07:04:23;3.03;;;1.63;;
80985;SDS011;70451;51.226;6.412;2023-07-29T07:06:38;3.53;;;1.50;;
80985;SDS011;70451;51.226;6.412;2023-07-29T07:08:54;2.85;;;1.60;;
80985;SDS011;70451;51.226;6.412;2023-07-29T07:11:09;1.90;;;1.60;;
80985;SDS011;70451;51.226;6.412;2023-07-29T07:13:24;2.90;;;1.40;;
80985;SDS011;70451;51.226;6.412;2023-07-29T07:15:40;2.55;;;1.45;;
80985;SDS011;70451;51.226;6.412;2023-07-29T07:17:55;2.28;;;1.45;;
80985;SDS011;70451;51.226;6.412;2023-07-29T07:20:10;1.73;;;1.13;;
80985;SDS011;70451;51.226;6.412;2023-07-29T07:22:26;2.63;;;1.25;;
80985;SDS011;70451;51.226;6.412;2023-07-29T07:24:41;2.10;;;1.50;;
80985;SDS011;70451;51.226;6.412;2023-07-29T07:26:57;1.95;;;1.27;;
80985;SDS011;70451;51.226;6.412;2023-07-29T07:29:12;1.77;;;1.27;;
80985;SDS011;70451;51.226;6.412;2023-07-29T07:31:27;2.13;;;1.30;;
80985;SDS011;70451;51.226;6.412;2023-07-29T07:33:43;2.60;;;1.58;;
80985;SDS011;70451;51.226;6.412;2023-07-29T07:35:58;3.85;;;1.50;;
80985;SDS011;70451;51.226;6.412;2023-07-29T07:38:13;2.17;;;1.30;;
80985;SDS011;70451;51.226;6.412;2023-07-29T07:40:29;2.40;;;1.47;;
80985;SDS011;70451;51.226;6.412;2023-07-29T07:42:47;2.42;;;1.35;;
80985;SDS011;70451;51.226;6.412;2023-07-29T07:45:03;1.83;;;1.35;;
80985;SDS011;70451;51.226;6.412;2023-07-29T07:47:18;1.90;;;1.40;;
80985;SDS011;70451;51.226;6.412;2023-07-29T07:49:34;1.90;;;1.38;;
80985;SDS011;70451;51.226;6.412;2023-07-29T07:51:50;1.27;;;0.95;;
80985;SDS011;70451;51.226;6.412;2023-07-29T07:54:05;1.98;;;1.63;;
80985;SDS011;70451;51.226;6.412;2023-07-29T07:56:21;1.50;;;1.00;;
80985;SDS011;70451;51.226;6.412;2023-07-29T07:58:36;2.20;;;1.38;;
80985;SDS011;70451;51.226;6.412;2023-07-29T08:00:52;2.65;;;1.15;;
80985;SDS011;70451;51.226;6.412;2023-07-29T08:03:17;1.63;;;1.10;;
80985;SDS011;70451;51.226;6.412;2023-07-29T08:05:32;2.30;;;1.17;;
80985;SDS011;70451;51.226;6.412;2023-07-29T08:07:48;1.85;;;1.15;;
80985;SDS011;70451;51.226;6.412;2023-07-29T08:10:03;3.30;;;1.20;;
80985;SDS011;70451;51.226;6.412;2023-07-29T08:12:19;1.85;;;1.23;;
80985;SDS011;70451;51.226;6.412;2023-07-29T08:14:34;1.25;;;1.10;;
80985;SDS011;70451;51.226;6.412;2023-07-29T08:16:49;2.13;;;1.17;;
80985;SDS011;70451;51.226;6.412;2023-07-29T08:19:05;1.88;;;1.25;;
80985;SDS011;70451;51.226;6.412;2023-07-29T08:21:20;1.60;;;1.30;;
80985;SDS011;70451;51.226;6.412;2023-07-29T08:23:35;3.58;;;1.40;;
80985;SDS011;70451;51.226;6.412;2023-07-29T08:25:55;2.65;;;1.10;;
80985;SDS011;70451;51.226;6.412;2023-07-29T08:28:17;1.73;;;1.27;;
80985;SDS011;70451;51.226;6.412;2023-07-29T08:30:32;1.70;;;1.10;;
80985;SDS011;70451;51.226;6.412;2023-07-29T08:32:47;1.40;;;1.02;;
80985;SDS011;70451;51.226;6.412;2023-07-29T08:35:03;1.25;;;0.90;;
80985;SDS011;70451;51.226;6.412;2023-07-29T08:37:18;1.85;;;1.10;;
80985;SDS011;70451;51.226;6.412;2023-07-29T08:39:34;1.63;;;1.00;;
80985;SDS011;70451;51.226;6.412;2023-07-29T08:41:54;2.05;;;1.15;;
80985;SDS011;70451;51.226;6.412;2023-07-29T08:44:20;1.98;;;1.13;;
80985;SDS011;70451;51.226;6.412;2023-07-29T08:46:38;1.48;;;1.10;;
80985;SDS011;70451;51.226;6.412;2023-07-29T08:48:54;3.53;;;1.30;;
80985;SDS011;70451;51.226;6.412;2023-07-29T08:51:10;1.90;;;1.10;;
80985;SDS011;70451;51.226;6.412;2023-07-29T08:53:26;1.10;;;1.00;;
80985;SDS011;70451;51.226;6.412;2023-07-29T08:55:42;1.50;;;1.02;;
80985;SDS011;70451;51.226;6.412;2023-07-29T08:57:59;1.48;;;1.08;;
80985;SDS011;70451;51.226;6.412;2023-07-29T09:00:15;2.33;;;1.50;;
80985;SDS011;70451;51.226;6.412;2023-07-29T09:02:30;1.70;;;0.98;;
80985;SDS011;70451;51.226;6.412;2023-07-29T09:04:45;1.83;;;1.00;;
80985;SDS011;70451;51.226;6.412;2023-07-29T09:07:01;2.25;;;1.17;;
80985;SDS011;70451;51.226;6.412;2023-07-29T09:09:17;1.58;;;1.00;;
80985;SDS011;70451;51.226;6.412;2023-07-29T09:11:32;2.00;;;1.70;;
80985;SDS011;70451;51.226;6.412;2023-07-29T09:13:48;1.60;;;1.23;;
80985;SDS011;70451;51.226;6.412;2023-07-29T09:16:03;1.58;;;1.10;;
80985;SDS011;70451;51.226;6.412;2023-07-29T09:18:19;1.10;;;1.00;;
80985;SDS011;70451;51.226;6.412;2023-07-29T09:20:35;1.80;;;1.08;;
80985;SDS011;70451;51.226;6.412;2023-07-29T09:22:50;1.20;;;0.93;;
80985;SDS011;70451;51.226;6.412;2023-07-29T09:25:06;1.58;;;1.17;;
80985;SDS011;70451;51.226;6.412;2023-07-29T09:27:25;2.38;;;1.15;;
80985;SDS011;70451;51.226;6.412;2023-07-29T09:29:42;1.98;;;1.35;;
80985;SDS011;70451;51.226;6.412;2023-07-29T09:32:17;2.60;;;1.40;;
80985;SDS011;70451;51.226;6.412;2023-07-29T09:34:34;1.58;;;1.27;;
80985;SDS011;70451;51.226;6.412;2023-07-29T09:36:56;2.33;;;1.08;;
80985;SDS011;70451;51.226;6.412;2023-07-29T09:39:12;1.70;;;1.10;;
80985;SDS011;70451;51.226;6.412;2023-07-29T09:41:30;2.05;;;1.17;;
80985;SDS011;70451;51.226;6.412;2023-07-29T09:43:48;1.77;;;1.30;;
80985;SDS011;70451;51.226;6.412;2023-07-29T09:46:11;2.45;;;1.30;;
80985;SDS011;70451;51.226;6.412;2023-07-29T09:48:26;2.08;;;1.20;;
80985;SDS011;70451;51.226;6.412;2023-07-29T09:50:43;2.20;;;1.30;;
80985;SDS011;70451;51.226;6.412;2023-07-29T09:52:58;2.05;;;1.27;;
80985;SDS011;70451;51.226;6.412;2023-07-29T09:55:16;2.30;;;1.30;;
80985;SDS011;70451;51.226;6.412;2023-07-29T09:57:33;3.03;;;1.10;;
80985;SDS011;70451;51.226;6.412;2023-07-29T09:59:54;2.30;;;1.33;;
80985;SDS011;70451;51.226;6.412;2023-07-29T10:02:13;3.05;;;1.20;;
80985;SDS011;70451;51.226;6.412;2023-07-29T10:04:31;1.67;;;1.20;;
80985;SDS011;70451;51.226;6.412;2023-07-29T10:06:47;2.30;;;1.15;;
80985;SDS011;70451;51.226;6.412;2023-07-29T10:09:03;1.50;;;1.20;;
80985;SDS011;70451;51.226;6.412;2023-07-29T10:11:20;1.55;;;1.17;;
80985;SDS011;70451;51.226;6.412;2023-07-29T10:13:36;1.50;;;1.15;;
80985;SDS011;70451;51.226;6.412;2023-07-29T10:15:55;2.65;;;1.27;;
80985;SDS011;70451;51.226;6.412;2023-07-29T10:18:11;2.83;;;1.10;;
80985;SDS011;70451;51.226;6.412;2023-07-29T10:20:27;2.00;;;1.35;;
80985;SDS011;70451;51.226;6.412;2023-07-29T10:22:43;1.63;;;1.10;;
80985;SDS011;70451;51.226;6.412;2023-07-29T10:25:07;1.33;;;1.08;;
80985;SDS011;70451;51.226;6.412;2023-07-29T10:27:31;3.05;;;1.40;;
80985;SDS011;70451;51.226;6.412;2023-07-29T10:30:03;1.98;;;1.20;;
80985;SDS011;70451;51.226;6.412;2023-07-29T10:32:18;2.35;;;1.13;;
80985;SDS011;70451;51.226;6.412;2023-07-29T10:34:37;1.67;;;1.30;;
80985;SDS011;70451;51.226;6.412;2023-07-29T10:36:54;1.73;;;1.10;;
80985;SDS011;70451;51.226;6.412;2023-07-29T10:39:10;1.55;;;1.20;;
80985;SDS011;70451;51.226;6.412;2023-07-29T10:41:54;1.55;;;1.45;;
80985;SDS011;70451;51.226;6.412;2023-07-29T10:46:55;1.80;;;1.30;;
80985;SDS011;70451;51.226;6.412;2023-07-29T10:49:10;1.27;;;0.90;;
80985;SDS011;70451;51.226;6.412;2023-07-29T10:53:45;1.75;;;1.17;;
80985;SDS011;70451;51.226;6.412;2023-07-29T10:56:00;1.00;;;0.90;;
80985;SDS011;70451;51.226;6.412;2023-07-29T10:58:17;1.50;;;1.00;;
80985;SDS011;70451;51.226;6.412;2023-07-29T11:00:33;1.92;;;0.90;;
80985;SDS011;70451;51.226;6.412;2023-07-29T11:03:05;1.88;;;1.33;;
80985;SDS011;70451;51.226;6.412;2023-07-29T11:05:21;2.00;;;1.23;;
80985;SDS011;70451;51.226;6.412;2023-07-29T11:07:43;1.85;;;1.20;;
80985;SDS011;70451;51.226;6.412;2023-07-29T11:10:01;1.42;;;1.10;;
80985;SDS011;70451;51.226;6.412;2023-07-29T11:14:49;2.85;;;0.93;;
80985;SDS011;70451;51.226;6.412;2023-07-29T11:17:05;1.50;;;1.10;;
80985;SDS011;70451;51.226;6.412;2023-07-29T11:19:20;1.77;;;1.38;;
80985;SDS011;70451;51.226;6.412;2023-07-29T11:21:36;4.28;;;1.50;;
80985;SDS011;70451;51.226;6.412;2023-07-29T11:23:52;1.83;;;1.30;;
80985;SDS011;70451;51.226;6.412;2023-07-29T11:26:08;3.47;;;1.33;;
80985;SDS011;70451;51.226;6.412;2023-07-29T11:28:23;3.90;;;1.40;;
80985;SDS011;70451;51.226;6.412;2023-07-29T11:30:40;1.88;;;1.23;;
80985;SDS011;70451;51.226;6.412;2023-07-29T11:32:55;2.55;;;1.30;;
80985;SDS011;70451;51.226;6.412;2023-07-29T11:35:12;3.10;;;1.20;;
80985;SDS011;70451;51.226;6.412;2023-07-29T11:37:32;3.97;;;1.55;;
80985;SDS011;70451;51.226;6.412;2023-07-29T11:39:48;3.67;;;1.38;;
80985;SDS011;70451;51.226;6.412;2023-07-29T11:42:04;1.77;;;1.50;;
80985;SDS011;70451;51.226;6.412;2023-07-29T11:44:19;1.60;;;1.30;;
80985;SDS011;70451;51.226;6.412;2023-07-29T11:46:35;1.92;;;1.73;;
80985;SDS011;70451;51.226;6.412;2023-07-29T11:48:50;2.97;;;1.30;;
80985;SDS011;70451;51.226;6.412;2023-07-29T11:51:05;2.35;;;1.30;;
80985;SDS011;70451;51.226;6.412;2023-07-29T11:53:22;1.70;;;1.50;;
80985;SDS011;70451;51.226;6.412;2023-07-29T11:55:37;1.77;;;1.30;;
80985;SDS011;70451;51.226;6.412;2023-07-29T11:57:53;4.20;;;1.73;;
80985;SDS011;70451;51.226;6.412;2023-07-29T12:00:09;3.72;;;1.17;;
80985;SDS011;70451;51.226;6.412;2023-07-29T12:02:25;1.75;;;1.25;;
80985;SDS011;70451;51.226;6.412;2023-07-29T12:04:41;2.95;;;1.23;;
80985;SDS011;70451;51.226;6.412;2023-07-29T12:06:57;2.08;;;1.40;;
80985;SDS011;70451;51.226;6.412;2023-07-29T12:09:13;2.63;;;1.70;;
80985;SDS011;70451;51.226;6.412;2023-07-29T12:11:28;4.03;;;1.60;;
80985;SDS011;70451;51.226;6.412;2023-07-29T12:13:44;1.85;;;1.42;;
80985;SDS011;70451;51.226;6.412;2023-07-29T12:16:02;3.42;;;1.50;;
80985;SDS011;70451;51.226;6.412;2023-07-29T12:18:18;2.17;;;1.55;;
80985;SDS011;70451;51.226;6.412;2023-07-29T12:20:33;1.60;;;1.13;;
80985;SDS011;70451;51.226;6.412;2023-07-29T12:22:55;2.65;;;1.10;;
80985;SDS011;70451;51.226;6.412;2023-07-29T12:25:12;2.22;;;1.30;;
80985;SDS011;70451;51.226;6.412;2023-07-29T12:27:27;4.55;;;1.40;;
80985;SDS011;70451;51.226;6.412;2023-07-29T12:29:45;2.30;;;1.42;;
80985;SDS011;70451;51.226;6.412;2023-07-29T12:32:03;2.05;;;1.55;;
80985;SDS011;70451;51.226;6.412;2023-07-29T12:34:19;2.67;;;1.40;;
80985;SDS011;70451;51.226;6.412;2023-07-29T12:36:45;3.80;;;1.58;;
80985;SDS011;70451;51.226;6.412;2023-07-29T12:39:02;2.05;;;1.50;;
80985;SDS011;70451;51.226;6.412;2023-07-29T12:41:18;2.10;;;1.65;;
80985;SDS011;70451;51.226;6.412;2023-07-29T12:43:33;2.53;;;1.30;;
80985;SDS011;70451;51.226;6.412;2023-07-29T12:45:50;2.88;;;1.58;;
80985;SDS011;70451;51.226;6.412;2023-07-29T12:48:05;3.10;;;1.35;;
80985;SDS011;70451;51.226;6.412;2023-07-29T12:50:21;3.67;;;1.52;;
80985;SDS011;70451;51.226;6.412;2023-07-29T12:52:36;1.88;;;1.45;;
80985;SDS011;70451;51.226;6.412;2023-07-29T12:54:51;2.15;;;1.52;;
80985;SDS011;70451;51.226;6.412;2023-07-29T12:57:06;2.72;;;1.65;;
80985;SDS011;70451;51.226;6.412;2023-07-29T12:59:22;2.53;;;1.35;;
80985;SDS011;70451;51.226;6.412;2023-07-29T13:01:37;2.22;;;1.50;;
80985;SDS011;70451;51.226;6.412;2023-07-29T13:03:52;2.97;;;1.70;;
80985;SDS011;70451;51.226;6.412;2023-07-29T13:06:08;3.10;;;1.48;;
80985;SDS011;70451;51.226;6.412;2023-07-29T13:08:23;2.00;;;1.70;;
80985;SDS011;70451;51.226;6.412;2023-07-29T13:10:39;3.08;;;1.75;;
80985;SDS011;70451;51.226;6.412;2023-07-29T13:12:54;2.97;;;2.15;;
80985;SDS011;70451;51.226;6.412;2023-07-29T13:15:10;2.10;;;1.90;;
80985;SDS011;70451;51.226;6.412;2023-07-29T13:17:25;2.45;;;1.75;;
80985;SDS011;70451;51.226;6.412;2023-07-29T13:19:40;3.70;;;1.83;;
80985;SDS011;70451;51.226;6.412;2023-07-29T13:21:56;2.40;;;2.00;;
80985;SDS011;70451;51.226;6.412;2023-07-29T13:24:11;3.53;;;1.85;;
80985;SDS011;70451;51.226;6.412;2023-07-29T13:26:26;1.85;;;1.65;;
80985;SDS011;70451;51.226;6.412;2023-07-29T13:28:41;2.40;;;1.80;;
80985;SDS011;70451;51.226;6.412;2023-07-29T13:30:57;3.30;;;2.00;;
80985;SDS011;70451;51.226;6.412;2023-07-29T13:33:12;4.43;;;1.90;;
80985;SDS011;70451;51.226;6.412;2023-07-29T13:35:29;2.03;;;1.63;;
80985;SDS011;70451;51.226;6.412;2023-07-29T13:37:45;2.45;;;1.67;;
80985;SDS011;70451;51.226;6.412;2023-07-29T13:40:00;3.45;;;1.80;;
80985;SDS011;70451;51.226;6.412;2023-07-29T13:42:16;2.40;;;1.52;;
80985;SDS011;70451;51.226;6.412;2023-07-29T13:44:31;2.63;;;1.70;;
80985;SDS011;70451;51.226;6.412;2023-07-29T13:46:46;1.92;;;1.73;;
80985;SDS011;70451;51.226;6.412;2023-07-29T13:49:02;2.15;;;1.60;;
80985;SDS011;70451;51.226;6.412;2023-07-29T13:51:18;2.95;;;1.50;;
80985;SDS011;70451;51.226;6.412;2023-07-29T13:53:33;2.75;;;1.70;;
80985;SDS011;70451;51.226;6.412;2023-07-29T13:55:48;2.15;;;1.52;;